Delhi, Iowa
Current Conditions -  °F | °C
As of 9:55 AM on Thursday 30 Oct 2014 (Local Time) from KMXO Reporting Station
Scattered Clouds Scattered Clouds  
Wind Chill:   Ceiling: Unl
Heat Index:   Visibility: 10mi
Dew Point:   Wind: 7mph
Humidity: 81%   Direction: 140°SE
Pressure: 30.09"   Gusts: NA
Location:  42.43°N, 91.33°W
Report Text: KMXO 301455Z AUTO 14006KT 10SM FEW050 SCT065 SCT100 06/03 A3009 RMK AO2
Loading
Personal Weather Stations






























Interactive Weather Map
Tropical Storm Tracking
New forecast layout! Learn more

10-Day Weather Forecast

Advertisements
Track Severe Weather on mobile